Time;durP1;ratioP1;P1;durP2;ratioP2;P2;SDS_P1;SDS_P2;PMS_P1;PMS_P2;Temp;Humidity;BMP_temperature;BMP_pressure;BME280_temperature;BME280_humidity;BME280_pressure;Samples;Min_cycle;Max_cycle;Signal;HPM_P1;HPM_P2
2021/08/07 00:00:19;;;;;;;4.22;3.83;;;;;;;18.59;77.93;94968.94;5069018;28;20231;-86
2021/08/07 00:02:46;;;;;;;3.90;3.60;;;;;;;18.59;78.46;94971.53;5068294;28;20197;-85
2021/08/07 00:05:13;;;;;;;5.35;3.80;;;;;;;18.61;77.75;94973.91;5068156;28;20194;-86
2021/08/07 00:07:39;;;;;;;4.82;3.17;;;;;;;18.74;76.94;94960.50;5068386;28;20228;-85
2021/08/07 00:10:08;;;;;;;5.50;3.60;;;;;;;18.80;76.52;94948.31;5068179;28;20202;-85
2021/08/07 00:12:35;;;;;;;5.68;3.85;;;;;;;18.81;76.75;94961.13;5069006;28;20239;-85
2021/08/07 00:15:05;;;;;;;5.00;3.58;;;;;;;18.91;76.08;94963.03;5070558;28;20632;-85
2021/08/07 00:17:31;;;;;;;6.00;4.20;;;;;;;18.97;75.28;94959.47;5087808;28;20213;-85
2021/08/07 00:19:58;;;;;;;4.45;3.80;;;;;;;18.99;75.20;94960.03;5091981;28;20201;-85
2021/08/07 00:22:25;;;;;;;3.95;3.55;;;;;;;18.95;75.17;94958.94;5072559;28;20193;-85
2021/08/07 00:24:52;;;;;;;4.53;3.53;;;;;;;18.96;75.09;94950.06;5081082;28;20202;-86
2021/08/07 00:27:18;;;;;;;3.90;3.50;;;;;;;18.98;75.20;94950.63;5080416;28;20216;-85
2021/08/07 00:29:45;;;;;;;4.05;3.45;;;;;;;19.03;75.44;94950.69;5092965;28;20264;-85
2021/08/07 00:32:16;;;;;;;4.25;3.60;;;;;;;19.04;75.98;94954.06;5081818;28;20405;-85
2021/08/07 00:35:00;;;;;;;3.63;3.30;;;;;;;19.08;75.66;94970.78;5080466;28;20209;-85
2021/08/07 00:37:26;;;;;;;4.22;3.50;;;;;;;19.05;75.35;94960.88;5074004;28;20224;-86
2021/08/07 00:39:53;;;;;;;3.63;3.30;;;;;;;19.04;75.43;94954.88;5075782;28;20221;-85
2021/08/07 00:42:22;;;;;;;4.65;3.42;;;;;;;19.02;75.11;94954.31;5076930;28;20193;-85
2021/08/07 00:44:54;;;;;;;4.03;3.42;;;;;;;18.94;75.31;94952.13;5091291;28;20197;-85
2021/08/07 00:47:25;;;;;;;3.80;3.50;;;;;;;18.86;76.27;94950.72;5091035;28;20244;-85
2021/08/07 00:49:52;;;;;;;3.95;3.65;;;;;;;18.85;75.99;94953.59;5091271;28;20204;-85
2021/08/07 00:52:18;;;;;;;4.68;3.38;;;;;;;18.87;76.23;94948.91;5073642;28;20190;-85
2021/08/07 00:54:45;;;;;;;5.85;3.88;;;;;;;18.84;76.64;94959.84;5070865;28;20202;-85
2021/08/07 00:57:14;;;;;;;4.22;3.63;;;;;;;18.79;76.18;94960.56;5071139;28;20227;-86
2021/08/07 00:59:44;;;;;;;6.10;3.63;;;;;;;18.82;76.57;94954.09;5070980;28;20615;-86
2021/08/07 01:02:16;;;;;;;5.60;4.10;;;;;;;18.84;76.93;94949.41;5070804;28;20207;-85
2021/08/07 01:04:51;;;;;;;4.93;3.88;;;;;;;18.88;76.86;94942.66;5071146;28;20202;-85
2021/08/07 01:07:32;;;;;;;3.92;3.55;;;;;;;18.85;76.67;94954.41;5070470;28;20229;-85
2021/08/07 01:10:10;;;;;;;5.10;3.60;;;;;;;18.79;76.66;94942.31;5071202;28;20201;-85
2021/08/07 01:12:41;;;;;;;4.95;3.67;;;;;;;18.76;76.85;94939.41;5071143;28;20236;-85
2021/08/07 01:15:14;;;;;;;4.07;3.55;;;;;;;18.81;76.95;94939.47;5070375;28;20221;-85
2021/08/07 01:17:47;;;;;;;3.90;3.50;;;;;;;18.84;77.20;94936.38;5070748;28;20419;-85
2021/08/07 01:20:21;;;;;;;3.75;3.30;;;;;;;18.85;76.79;94940.56;5070701;28;20243;-85
2021/08/07 01:23:00;;;;;;;3.75;3.45;;;;;;;18.89;77.15;94937.19;5071137;28;20193;-85
2021/08/07 01:25:34;;;;;;;4.25;3.42;;;;;;;18.92;76.66;94933.31;5070530;28;20227;-85
2021/08/07 01:28:03;;;;;;;3.50;3.20;;;;;;;18.89;76.50;94925.97;5071542;28;20226;-86
2021/08/07 01:30:33;;;;;;;3.25;2.95;;;;;;;18.90;76.45;94917.91;5070755;28;20216;-85
2021/08/07 01:33:04;;;;;;;5.53;3.55;;;;;;;18.87;76.92;94915.78;5070787;28;20208;-85
2021/08/07 01:36:05;;;;;;;4.28;3.20;;;;;;;18.82;77.14;94915.75;5070583;28;20224;-85
2021/08/07 01:38:32;;;;;;;4.05;3.25;;;;;;;18.77;77.13;94899.25;5072868;28;20197;-85
2021/08/07 01:41:03;;;;;;;3.90;3.50;;;;;;;18.80;77.25;94893.53;5076710;28;20217;-85
2021/08/07 01:43:34;;;;;;;3.95;3.53;;;;;;;18.71;77.58;94885.34;5079159;28;20200;-85
2021/08/07 01:46:04;;;;;;;4.85;3.42;;;;;;;18.72;77.87;94896.56;5070787;28;20207;-85
2021/08/07 01:48:43;;;;;;;3.45;3.15;;;;;;;18.76;78.01;94889.84;5069985;28;20221;-85
2021/08/07 01:51:15;;;;;;;3.95;3.50;;;;;;;18.80;77.92;94883.13;5069704;28;20213;-85
2021/08/07 01:53:49;;;;;;;3.67;3.20;;;;;;;18.71;78.55;94881.97;5070026;28;20215;-85
2021/08/07 01:56:25;;;;;;;3.80;3.42;;;;;;;18.73;77.60;94885.13;5069788;28;20202;-85
2021/08/07 01:59:06;;;;;;;3.80;3.47;;;;;;;18.62;78.79;94897.25;5070151;28;20232;-85
2021/08/07 02:01:33;;;;;;;5.38;3.55;;;;;;;18.69;78.28;94902.28;5069915;28;20203;-86
2021/08/07 02:04:03;;;;;;;4.03;3.67;;;;;;;18.72;78.15;94901.78;5069712;28;20220;-87
2021/08/07 02:06:38;;;;;;;4.00;3.60;;;;;;;18.72;78.43;94907.00;5069634;28;20229;-86
2021/08/07 02:09:05;;;;;;;4.07;3.63;;;;;;;18.74;77.99;94899.72;5070421;28;20201;-85
2021/08/07 02:11:35;;;;;;;4.72;3.60;;;;;;;18.66;77.83;94898.34;5070042;28;20198;-86
2021/08/07 02:14:06;;;;;;;4.82;3.40;;;;;;;18.61;77.78;94893.88;5069642;28;20235;-86
2021/08/07 02:16:38;;;;;;;3.70;3.40;;;;;;;18.55;78.26;94891.41;5069528;28;20265;-86
2021/08/07 02:19:05;;;;;;;4.55;3.45;;;;;;;18.48;78.47;94896.78;5070149;28;20221;-86
2021/08/07 02:21:37;;;;;;;3.65;3.35;;;;;;;18.41;79.89;94900.63;5070151;28;20194;-86
2021/08/07 02:24:07;;;;;;;4.78;3.45;;;;;;;18.49;79.20;94890.53;5070313;28;20228;-86
2021/08/07 02:26:37;;;;;;;4.45;3.35;;;;;;;18.60;78.42;94884.47;5069931;28;20257;-86
2021/08/07 02:29:15;;;;;;;3.47;3.17;;;;;;;18.48;79.15;94875.13;5069844;28;20205;-87
2021/08/07 02:31:46;;;;;;;4.57;3.58;;;;;;;18.35;79.70;94873.69;5069910;28;20211;-85
2021/08/07 02:34:17;;;;;;;4.13;3.80;;;;;;;18.39;79.59;94868.78;5069858;28;20197;-86
2021/08/07 02:36:48;;;;;;;4.50;3.30;;;;;;;18.45;79.18;94867.81;5069207;28;20178;-85
2021/08/07 02:39:15;;;;;;;4.68;3.40;;;;;;;18.49;79.39;94864.47;5079179;28;20227;-85
2021/08/07 02:41:46;;;;;;;3.83;3.42;;;;;;;18.56;78.74;94865.09;5089436;28;20197;-86
2021/08/07 02:44:17;;;;;;;4.32;3.63;;;;;;;18.56;79.13;94870.31;5075186;28;20197;-85
2021/08/07 02:46:44;;;;;;;4.38;3.38;;;;;;;18.53;79.26;94870.00;5069968;28;20472;-86
2021/08/07 02:50:24;;;;;;;3.90;3.40;;;;;;;18.45;80.42;94870.44;5079711;28;20201;-85
2021/08/07 02:52:55;;;;;;;3.90;3.60;;;;;;;18.41;79.71;94869.34;4986432;28;20209;-85
2021/08/07 02:55:25;;;;;;;5.07;3.65;;;;;;;18.28;81.45;94854.81;5069717;28;20508;-85
2021/08/07 02:57:54;;;;;;;3.42;3.13;;;;;;;18.24;80.90;94856.38;5069325;28;20245;-86
2021/08/07 03:00:25;;;;;;;3.80;3.50;;;;;;;18.20;82.03;94863.88;5068880;28;20905;-85
2021/08/07 03:02:57;;;;;;;3.80;3.28;;;;;;;18.25;81.87;94873.56;5068944;28;20228;-86
2021/08/07 03:05:24;;;;;;;3.45;3.15;;;;;;;18.30;80.51;94865.81;5074261;28;20216;-85
2021/08/07 03:07:50;;;;;;;3.50;3.20;;;;;;;18.30;80.68;94861.38;5087589;28;20225;-85
2021/08/07 03:10:17;;;;;;;3.47;3.17;;;;;;;18.23;81.30;94852.19;5088359;28;20201;-87
2021/08/07 03:12:44;;;;;;;5.03;3.60;;;;;;;18.17;81.75;94853.94;5089665;28;20267;-86
2021/08/07 03:15:12;;;;;;;3.63;3.33;;;;;;;18.11;82.76;94851.47;5088565;28;20276;-85
2021/08/07 03:17:41;;;;;;;4.45;3.22;;;;;;;18.02;83.56;94858.94;5088066;28;20747;-86
2021/08/07 03:20:09;;;;;;;4.20;3.53;;;;;;;18.08;82.80;94854.59;5088552;28;20231;-85
2021/08/07 03:22:36;;;;;;;4.80;3.60;;;;;;;18.11;82.22;94862.69;5080027;28;20264;-85
2021/08/07 03:25:03;;;;;;;3.65;3.22;;;;;;;18.09;82.48;94861.38;5068474;28;20216;-85
2021/08/07 03:27:30;;;;;;;3.50;3.00;;;;;;;18.15;82.20;94855.97;5068554;28;20231;-86
2021/08/07 03:29:56;;;;;;;5.78;3.20;;;;;;;18.20;82.10;94861.25;5068568;28;20198;-86
2021/08/07 03:32:23;;;;;;;3.50;3.20;;;;;;;18.20;82.08;94853.44;5067401;28;20201;-86
2021/08/07 03:34:51;;;;;;;3.13;2.83;;;;;;;18.15;81.88;94865.63;5067427;28;20201;-86
2021/08/07 03:37:17;;;;;;;5.43;3.35;;;;;;;18.11;82.81;94870.50;5071950;28;20393;-85
2021/08/07 03:39:44;;;;;;;3.40;3.10;;;;;;;18.20;81.83;94869.09;5069081;28;20245;-85
2021/08/07 03:42:10;;;;;;;4.03;3.00;;;;;;;18.28;81.20;94866.03;5083877;28;20201;-87
2021/08/07 03:44:37;;;;;;;3.92;3.00;;;;;;;18.18;81.88;94870.34;5074249;28;20198;-85
2021/08/07 03:47:03;;;;;;;3.38;3.08;;;;;;;18.13;81.81;94852.81;5067980;28;20204;-86
2021/08/07 03:49:30;;;;;;;6.95;3.17;;;;;;;18.13;81.30;94846.81;5084209;28;20192;-85
2021/08/07 03:51:58;;;;;;;4.68;3.40;;;;;;;18.13;81.80;94847.63;5085121;28;20203;-85
2021/08/07 03:54:24;;;;;;;4.43;3.17;;;;;;;18.19;81.35;94851.88;5066536;28;20231;-85
2021/08/07 03:56:51;;;;;;;3.63;3.00;;;;;;;18.23;80.77;94846.97;5069461;28;20208;-85
2021/08/07 03:59:17;;;;;;;3.50;2.85;;;;;;;18.19;80.44;94838.06;5077215;28;20189;-85
2021/08/07 04:01:45;;;;;;;4.57;2.80;;;;;;;18.17;80.48;94834.91;5074562;28;20205;-86
2021/08/07 04:04:11;;;;;;;4.55;2.83;;;;;;;18.24;79.83;94830.31;5080191;28;20204;-87
2021/08/07 04:06:38;;;;;;;3.47;2.85;;;;;;;18.32;79.94;94835.06;5070438;28;20305;-86
2021/08/07 04:09:06;;;;;;;3.78;2.88;;;;;;;18.36;79.28;94835.38;5073967;28;20213;-85
2021/08/07 04:11:32;;;;;;;3.30;2.70;;;;;;;18.36;79.37;94836.16;5084679;28;20257;-85
2021/08/07 04:13:58;;;;;;;3.83;2.50;;;;;;;18.40;79.73;94833.88;5067993;28;20603;-85
2021/08/07 04:16:26;;;;;;;4.43;2.63;;;;;;;18.45;78.66;94832.13;5067269;28;20224;-85
2021/08/07 04:18:52;;;;;;;3.38;2.45;;;;;;;18.44;78.39;94825.34;5083139;28;20228;-85
2021/08/07 04:21:19;;;;;;;3.65;2.60;;;;;;;18.44;78.32;94817.50;5087254;28;20227;-86
2021/08/07 04:23:45;;;;;;;2.67;2.47;;;;;;;18.47;78.16;94818.84;5086099;28;20196;-85
2021/08/07 04:26:13;;;;;;;4.25;2.60;;;;;;;18.50;78.36;94823.56;5076832;28;20192;-85
2021/08/07 04:28:40;;;;;;;4.80;2.60;;;;;;;18.53;78.04;94831.66;5080054;28;20220;-86
2021/08/07 04:31:06;;;;;;;2.50;2.30;;;;;;;18.56;78.30;94838.22;5068211;28;20224;-86
2021/08/07 04:33:34;;;;;;;2.55;2.35;;;;;;;18.57;78.14;94847.63;5053136;28;20201;-86
2021/08/07 04:36:01;;;;;;;3.13;2.53;;;;;;;18.58;78.49;94847.38;5056299;28;20960;-86
2021/08/07 04:38:29;;;;;;;2.83;2.50;;;;;;;18.59;77.93;94849.00;5049428;28;20723;-86
2021/08/07 04:40:56;;;;;;;3.15;2.38;;;;;;;18.59;77.52;94848.19;5049127;28;20231;-88
2021/08/07 04:43:24;;;;;;;3.15;2.70;;;;;;;18.59;77.33;94848.19;5056743;28;20185;-86
2021/08/07 04:45:51;;;;;;;4.63;2.58;;;;;;;18.56;78.39;94861.69;5071059;28;20200;-87
2021/08/07 04:48:20;;;;;;;4.82;2.38;;;;;;;18.62;77.89;94860.75;5069631;28;20307;-86
2021/08/07 04:50:47;;;;;;;2.88;2.50;;;;;;;18.69;77.54;94863.16;5057071;28;20276;-87
2021/08/07 04:53:16;;;;;;;2.67;2.47;;;;;;;18.65;78.63;94868.09;5070361;28;20203;-86
2021/08/07 04:55:43;;;;;;;5.45;2.80;;;;;;;18.59;78.41;94850.81;5075006;28;20742;-86
2021/08/07 04:58:14;;;;;;;3.45;2.70;;;;;;;18.54;79.77;94854.09;5071634;28;20224;-86
2021/08/07 05:00:42;;;;;;;3.47;2.38;;;;;;;18.58;79.17;94844.78;5073153;28;20250;-86
2021/08/07 05:03:08;;;;;;;3.90;2.40;;;;;;;18.57;79.64;94845.81;5056635;28;20197;-87
2021/08/07 05:05:56;;;;;;;4.38;2.80;;;;;;;18.62;79.47;94845.91;5055052;28;20233;-87
2021/08/07 05:08:22;;;;;;;2.70;2.50;;;;;;;18.52;80.34;94844.94;5055586;28;20222;-87
2021/08/07 05:10:49;;;;;;;2.60;2.40;;;;;;;18.51;80.36;94846.78;5055772;28;20206;-86
2021/08/07 05:13:16;;;;;;;3.90;2.50;;;;;;;18.59;80.34;94843.78;5053957;28;20213;-88
2021/08/07 05:15:44;;;;;;;2.60;2.40;;;;;;;18.68;79.72;94844.09;5057524;28;20209;-87
2021/08/07 05:18:10;;;;;;;2.65;2.45;;;;;;;18.78;79.19;94830.41;5074026;28;20209;-86
2021/08/07 05:20:37;;;;;;;3.65;2.72;;;;;;;18.83;79.00;94828.66;5084678;28;20220;-85
2021/08/07 05:23:03;;;;;;;2.55;2.35;;;;;;;18.80;79.11;94838.78;5084952;28;20200;-86
2021/08/07 05:25:30;;;;;;;3.33;2.63;;;;;;;18.80;79.41;94823.13;5086545;28;20220;-85
2021/08/07 05:27:56;;;;;;;3.97;2.50;;;;;;;18.93;78.79;94826.13;5085705;28;20491;-87
2021/08/07 05:30:23;;;;;;;2.47;2.28;;;;;;;19.03;78.70;94829.88;5072596;28;20250;-87
2021/08/07 05:32:51;;;;;;;2.70;2.50;;;;;;;19.13;78.20;94837.78;5074728;28;20200;-87
2021/08/07 05:35:17;;;;;;;2.97;2.20;;;;;;;19.19;78.09;94834.97;5082528;28;20243;-86
2021/08/07 05:37:44;;;;;;;2.78;2.58;;;;;;;19.20;76.19;94826.09;5083909;28;20232;-86
2021/08/07 05:40:12;;;;;;;4.35;2.80;;;;;;;19.08;76.10;94835.13;5083823;28;20225;-85
2021/08/07 05:42:39;;;;;;;3.75;2.55;;;;;;;19.05;77.20;94825.94;5082344;28;20205;-85
2021/08/07 05:45:06;;;;;;;2.95;2.72;;;;;;;19.02;76.85;94831.69;5083739;28;20264;-85
2021/08/07 05:47:33;;;;;;;3.85;2.85;;;;;;;18.93;78.09;94818.28;5084310;28;20224;-84
2021/08/07 05:50:01;;;;;;;3.88;2.88;;;;;;;18.94;77.82;94819.88;5084617;28;20258;-86
2021/08/07 05:52:28;;;;;;;3.85;2.70;;;;;;;18.95;79.09;94831.09;5085579;28;20201;-86
2021/08/07 05:54:56;;;;;;;3.30;3.00;;;;;;;19.05;78.72;94825.94;5082813;28;20224;-85
2021/08/07 05:57:23;;;;;;;3.38;2.70;;;;;;;19.10;77.88;94823.41;5079802;28;20240;-84
2021/08/07 05:59:49;;;;;;;7.50;2.90;;;;;;;19.14;77.34;94810.66;5079747;28;20244;-85
2021/08/07 06:02:16;;;;;;;2.80;2.60;;;;;;;19.25;76.32;94812.28;5066318;28;20221;-85
2021/08/07 06:04:43;;;;;;;2.72;2.53;;;;;;;19.37;76.58;94820.75;5059011;28;20233;-85
2021/08/07 06:07:11;;;;;;;3.92;2.63;;;;;;;19.46;75.72;94826.28;5056447;28;20229;-85
2021/08/07 06:09:38;;;;;;;3.13;2.70;;;;;;;19.53;74.52;94816.47;5052799;28;20201;-86
2021/08/07 06:12:05;;;;;;;3.60;2.60;;;;;;;19.64;73.69;94829.31;5056189;28;20197;-86
2021/08/07 06:14:32;;;;;;;2.75;2.20;;;;;;;19.66;74.21;94829.06;5056387;28;20205;-85
2021/08/07 06:16:58;;;;;;;4.47;2.55;;;;;;;19.74;73.66;94833.06;5051938;28;20204;-87
2021/08/07 06:19:25;;;;;;;3.35;2.63;;;;;;;19.82;73.25;94825.50;5053044;28;20258;-88
2021/08/07 06:21:55;;;;;;;2.97;2.22;;;;;;;19.78;73.52;94824.47;5052733;28;20221;-87
2021/08/07 06:24:31;;;;;;;2.78;2.55;;;;;;;19.74;72.14;94822.59;5069210;28;20222;-87
2021/08/07 06:27:01;;;;;;;2.47;2.20;;;;;;;19.65;72.99;94807.38;5070032;28;20204;-89
2021/08/07 06:29:28;;;;;;;3.35;2.72;;;;;;;19.64;72.38;94807.63;5051632;28;20205;-86
2021/08/07 06:31:54;;;;;;;3.22;2.33;;;;;;;19.64;72.70;94805.81;5062597;28;20643;-87
2021/08/07 06:34:21;;;;;;;4.07;2.78;;;;;;;19.66;72.23;94790.69;5079660;28;20201;-85
2021/08/07 06:36:47;;;;;;;3.47;3.03;;;;;;;19.64;71.54;94789.34;5082862;28;20223;-84
2021/08/07 06:39:14;;;;;;;3.60;2.50;;;;;;;19.64;71.82;94784.13;5076862;28;20598;-84
2021/08/07 06:41:41;;;;;;;4.78;2.63;;;;;;;19.75;72.80;94790.22;5074529;28;20213;-84
2021/08/07 06:44:08;;;;;;;3.03;2.35;;;;;;;19.83;71.88;94793.13;5055896;28;20210;-84
2021/08/07 06:46:34;;;;;;;3.55;2.80;;;;;;;19.96;71.02;94804.97;5056342;28;20205;-85
2021/08/07 06:49:01;;;;;;;4.35;2.40;;;;;;;20.05;69.92;94819.09;5059362;28;20216;-85
2021/08/07 06:51:27;;;;;;;4.53;2.38;;;;;;;20.10;71.04;94816.53;5061494;28;20200;-84
2021/08/07 06:53:54;;;;;;;2.78;2.20;;;;;;;20.16;70.86;94818.13;5063334;28;20218;-85
2021/08/07 06:56:20;;;;;;;3.70;2.47;;;;;;;20.24;71.36;94820.25;5075398;28;20583;-84
2021/08/07 06:58:49;;;;;;;4.60;2.30;;;;;;;20.29;69.84;94825.50;5063236;28;20220;-84
2021/08/07 07:01:16;;;;;;;2.92;2.60;;;;;;;20.34;68.88;94822.91;5054326;28;20312;-85
2021/08/07 07:03:42;;;;;;;3.53;2.42;;;;;;;20.42;68.80;94813.81;5053545;28;20607;-86
2021/08/07 07:06:11;;;;;;;3.08;2.40;;;;;;;20.37;70.08;94803.34;5058486;28;20227;-85
2021/08/07 07:08:37;;;;;;;3.10;2.33;;;;;;;20.44;69.63;94795.25;5075886;28;20907;-85
2021/08/07 07:11:04;;;;;;;3.65;2.03;;;;;;;20.40;69.76;94799.44;5063896;28;20668;-86
2021/08/07 07:13:30;;;;;;;2.40;2.20;;;;;;;20.45;69.09;94796.81;5061019;28;20673;-84
2021/08/07 07:15:59;;;;;;;4.30;2.28;;;;;;;20.56;68.96;94799.22;5059292;28;20205;-85
2021/08/07 07:18:25;;;;;;;3.45;2.17;;;;;;;20.70;67.96;94804.75;5057185;28;20221;-85
2021/08/07 07:20:52;;;;;;;2.63;2.10;;;;;;;20.74;66.84;94802.41;5055381;28;20221;-83
2021/08/07 07:23:18;;;;;;;3.17;2.22;;;;;;;20.83;67.70;94800.81;5055421;28;20197;-86
2021/08/07 07:25:48;;;;;;;3.03;2.00;;;;;;;20.97;66.75;94805.28;5070980;28;20236;-83
2021/08/07 07:28:15;;;;;;;2.45;2.20;;;;;;;21.13;65.54;94805.31;5076627;28;20812;-84
2021/08/07 07:30:41;;;;;;;3.65;2.10;;;;;;;21.31;67.48;94802.22;5075248;28;20203;-86
2021/08/07 07:33:12;;;;;;;4.47;2.10;;;;;;;21.41;66.83;94799.59;5073471;28;20207;-86
2021/08/07 07:35:38;;;;;;;4.53;2.33;;;;;;;21.50;64.63;94794.59;5073923;28;20204;-86
2021/08/07 07:38:08;;;;;;;3.20;1.90;;;;;;;21.57;64.33;94795.91;5075865;28;20233;-86
2021/08/07 07:40:36;;;;;;;2.80;2.17;;;;;;;21.69;65.30;94787.78;5077023;28;20207;-86
2021/08/07 07:43:06;;;;;;;2.72;2.30;;;;;;;21.78;62.74;94788.78;5076019;28;20435;-86
2021/08/07 07:45:38;;;;;;;4.03;2.10;;;;;;;21.89;64.50;94790.34;5077926;28;20211;-86
2021/08/07 07:48:09;;;;;;;1.88;1.70;;;;;;;22.13;63.67;94795.78;5076569;28;20228;-86
2021/08/07 07:50:35;;;;;;;3.30;1.90;;;;;;;22.23;60.42;94784.50;5065103;28;20204;-85
2021/08/07 07:53:07;;;;;;;2.30;2.08;;;;;;;22.32;60.71;94788.13;5058932;28;20205;-86
2021/08/07 07:55:35;;;;;;;2.35;1.80;;;;;;;22.40;60.24;94790.97;5054948;28;20229;-86
2021/08/07 07:58:02;;;;;;;3.03;2.00;;;;;;;22.49;59.80;94791.19;5064238;28;20263;-86
2021/08/07 08:00:28;;;;;;;3.42;2.03;;;;;;;22.56;58.07;94789.03;5073764;28;20258;-87
2021/08/07 08:02:58;;;;;;;2.13;1.95;;;;;;;22.72;59.34;94787.91;5074477;28;20208;-86
2021/08/07 08:05:29;;;;;;;3.47;1.60;;;;;;;22.82;57.62;94787.09;5073040;28;20236;-88
2021/08/07 08:07:55;;;;;;;3.58;1.80;;;;;;;22.91;56.22;94787.28;5075829;28;20221;-85
2021/08/07 08:10:26;;;;;;;3.00;1.70;;;;;;;22.97;55.75;94773.84;5075850;28;20193;-85
2021/08/07 08:12:59;;;;;;;2.97;2.00;;;;;;;23.08;55.66;94779.84;5077046;28;20196;-85
2021/08/07 08:15:28;;;;;;;2.03;1.73;;;;;;;23.18;55.69;94778.97;5074697;28;20234;-85
2021/08/07 08:17:58;;;;;;;2.22;1.77;;;;;;;23.31;54.58;94778.31;5074703;28;20225;-86
2021/08/07 08:20:29;;;;;;;1.95;1.70;;;;;;;23.46;52.60;94774.81;5077231;28;20196;-87
2021/08/07 08:22:58;;;;;;;1.83;1.73;;;;;;;23.56;52.78;94767.63;5073234;28;20580;-87
2021/08/07 08:25:29;;;;;;;1.92;1.80;;;;;;;23.69;52.60;94766.97;5077253;28;20208;-86
2021/08/07 08:28:00;;;;;;;2.88;1.60;;;;;;;23.73;51.45;94767.19;5072139;28;20637;-87
2021/08/07 08:30:27;;;;;;;2.28;1.85;;;;;;;23.79;52.27;94766.09;5074252;28;20291;-87
2021/08/07 08:32:56;;;;;;;2.00;1.73;;;;;;;24.04;52.96;94765.03;5065517;28;20769;-87
2021/08/07 08:35:24;;;;;;;2.67;1.95;;;;;;;24.07;50.79;94769.72;5054053;28;20197;-87
2021/08/07 08:37:52;;;;;;;2.53;2.30;;;;;;;24.20;52.75;94763.78;5068237;28;20317;-85
2021/08/07 08:40:18;;;;;;;1.80;1.70;;;;;;;24.27;50.33;94755.56;5061767;28;20197;-86
2021/08/07 08:42:45;;;;;;;2.10;1.67;;;;;;;24.40;50.52;94749.63;5062396;28;20223;-85
2021/08/07 08:45:12;;;;;;;2.17;1.75;;;;;;;24.57;49.59;94735.97;5076384;28;20563;-87
2021/08/07 08:47:41;;;;;;;1.70;1.60;;;;;;;24.91;50.92;94747.03;5070027;28;20734;-85
2021/08/07 08:50:09;;;;;;;2.38;1.90;;;;;;;24.81;50.33;94743.78;5072414;28;20204;-87
2021/08/07 08:52:38;;;;;;;1.65;1.55;;;;;;;24.58;49.74;94743.59;5084483;28;20188;-87
2021/08/07 08:55:07;;;;;;;1.85;1.70;;;;;;;24.52;47.80;94738.66;5075588;28;20204;-87
2021/08/07 08:57:34;;;;;;;2.00;1.52;;;;;;;24.34;47.26;94733.09;5071969;28;20229;-85
2021/08/07 09:00:01;;;;;;;1.67;1.58;;;;;;;24.22;48.13;94737.97;5084976;28;20201;-88
2021/08/07 09:02:30;;;;;;;4.18;1.63;;;;;;;24.24;49.00;94737.72;5081519;28;20674;-86
2021/08/07 09:04:57;;;;;;;2.88;2.10;;;;;;;24.41;48.22;94736.19;5064750;28;20215;-87
2021/08/07 09:07:24;;;;;;;2.63;1.50;;;;;;;24.26;47.39;94736.34;5064595;28;20228;-86
2021/08/07 09:09:54;;;;;;;1.65;1.55;;;;;;;24.25;47.65;94740.06;5064433;28;20236;-86
2021/08/07 09:12:38;;;;;;;3.08;1.83;;;;;;;24.42;49.17;94736.97;5079474;28;20201;-87
2021/08/07 09:15:06;;;;;;;2.45;1.75;;;;;;;24.64;47.99;94744.28;5084352;28;20220;-86
2021/08/07 09:17:32;;;;;;;1.92;1.83;;;;;;;25.04;46.26;94733.16;5083121;28;20224;-86
2021/08/07 09:20:01;;;;;;;1.70;1.60;;;;;;;25.20;46.45;94731.09;5083282;28;20595;-87
2021/08/07 09:22:30;;;;;;;1.67;1.58;;;;;;;25.07;46.37;94734.44;5082809;28;20918;-88
2021/08/07 09:25:04;;;;;;;1.80;1.70;;;;;;;24.88;47.40;94726.53;5082846;28;20203;-86
2021/08/07 09:27:35;;;;;;;1.67;1.58;;;;;;;24.84;46.90;94728.19;5082926;28;20220;-86
2021/08/07 09:30:05;;;;;;;1.80;1.70;;;;;;;24.76;48.36;94719.09;5045152;28;20205;-88
2021/08/07 09:32:50;;;;;;;2.50;1.90;;;;;;;24.51;46.86;94721.31;5043574;28;20252;-86
2021/08/07 09:35:19;;;;;;;1.73;1.58;;;;;;;24.36;47.47;94723.09;5045116;28;20235;-85
2021/08/07 09:37:47;;;;;;;2.30;1.67;;;;;;;24.33;48.00;94718.38;5045597;28;20226;-86
2021/08/07 09:40:14;;;;;;;2.65;1.90;;;;;;;24.39;48.71;94714.63;5043220;28;20202;-87
2021/08/07 09:42:53;;;;;;;2.22;1.85;;;;;;;24.63;49.50;94709.25;5044230;28;20218;-86
2021/08/07 09:45:24;;;;;;;1.80;1.70;;;;;;;24.52;48.98;94715.75;5068248;28;20201;-87
2021/08/07 09:47:58;;;;;;;1.70;1.60;;;;;;;24.40;48.93;94705.66;5051179;28;20216;-88
2021/08/07 09:50:28;;;;;;;1.98;1.80;;;;;;;24.35;49.53;94708.38;5072188;28;20235;-86
2021/08/07 09:52:55;;;;;;;2.70;1.75;;;;;;;24.36;49.94;94711.78;5074055;28;20189;-86
2021/08/07 09:55:24;;;;;;;1.83;1.70;;;;;;;24.19;49.49;94706.19;5082909;28;20227;-85
2021/08/07 09:58:03;;;;;;;1.70;1.60;;;;;;;24.11;50.32;94691.81;5083963;28;20232;-87
2021/08/07 10:00:37;;;;;;;2.83;1.70;;;;;;;24.07;50.48;94686.31;5081636;28;20192;-87
2021/08/07 10:03:15;;;;;;;2.22;1.70;;;;;;;24.01;51.55;94679.59;5063390;28;20225;-87
2021/08/07 10:05:44;;;;;;;2.47;1.65;;;;;;;24.03;51.50;94681.94;5064002;28;20228;-87
2021/08/07 10:08:11;;;;;;;2.35;2.03;;;;;;;23.95;51.96;94683.34;5064856;28;20222;-87
2021/08/07 10:10:38;;;;;;;1.80;1.70;;;;;;;23.84;51.14;94681.91;5062566;28;20243;-86
2021/08/07 10:13:07;;;;;;;1.88;1.63;;;;;;;23.79;51.44;94675.91;5064049;28;20213;-85
2021/08/07 10:15:34;;;;;;;2.00;1.80;;;;;;;23.75;50.57;94681.72;5063797;28;20205;-87
2021/08/07 10:18:04;;;;;;;2.60;2.00;;;;;;;23.69;50.93;94680.22;5070571;28;20209;-88
2021/08/07 10:20:31;;;;;;;2.30;1.88;;;;;;;23.67;50.96;94679.72;5084675;28;20263;-87
2021/08/07 10:22:58;;;;;;;2.30;2.10;;;;;;;23.65;51.10;94671.34;5084131;28;20232;-87
2021/08/07 10:25:28;;;;;;;2.28;2.00;;;;;;;23.62;50.77;94664.03;5083996;28;20204;-86
2021/08/07 10:27:57;;;;;;;2.00;1.77;;;;;;;23.77;52.13;94669.09;5083574;28;20251;-87
2021/08/07 10:30:30;;;;;;;2.85;1.83;;;;;;;23.99;50.97;94670.41;5084875;28;20231;-86
2021/08/07 10:32:58;;;;;;;3.35;1.80;;;;;;;24.11;49.62;94671.53;5084546;28;20883;-84
2021/08/07 10:35:27;;;;;;;2.15;1.92;;;;;;;24.23;49.79;94671.16;5083606;28;20205;-86
2021/08/07 10:37:56;;;;;;;2.88;1.60;;;;;;;24.34;49.17;94669.97;5082517;28;20227;-85
2021/08/07 10:43:22;;;;;;;3.20;1.60;;;;;;;24.34;49.70;94669.97;5078156;28;20227;-85
2021/08/07 10:45:50;;;;;;;2.42;1.70;;;;;;;24.33;50.43;94664.97;5063788;28;20212;-84
2021/08/07 10:48:42;;;;;;;1.90;1.80;;;;;;;24.38;50.43;94668.31;5061986;28;20259;-86
2021/08/07 10:51:38;;;;;;;4.35;2.00;;;;;;;24.49;50.99;94663.69;5079854;28;20204;-86
2021/08/07 10:54:25;;;;;;;2.10;1.90;;;;;;;24.65;50.26;94657.13;5083468;28;20215;-84
2021/08/07 10:56:55;;;;;;;4.03;1.90;;;;;;;24.95;50.03;94653.25;5088562;28;20265;-86
2021/08/07 10:59:33;;;;;;;2.45;1.75;;;;;;;25.39;49.14;94659.88;5081144;28;20201;-86
2021/08/07 11:02:19;;;;;;;2.42;1.80;;;;;;;25.65;47.64;94660.97;5078978;28;20224;-84
2021/08/07 11:04:48;;;;;;;2.00;1.80;;;;;;;25.65;47.81;94662.81;5084346;28;20513;-84
2021/08/07 11:07:32;;;;;;;2.47;1.88;;;;;;;25.70;48.81;94652.97;5083018;28;20232;-84
2021/08/07 11:10:08;;;;;;;2.75;2.03;;;;;;;26.00;47.29;94651.53;5086097;28;20231;-85
2021/08/07 11:12:38;;;;;;;3.72;1.70;;;;;;;26.38;48.99;94638.88;5082164;28;20212;-85
2021/08/07 11:15:21;;;;;;;2.20;2.00;;;;;;;26.48;47.29;94636.00;5084524;28;20205;-84
2021/08/07 11:17:51;;;;;;;1.95;1.75;;;;;;;26.43;46.40;94635.34;5080450;28;20209;-84
2021/08/07 11:20:41;;;;;;;2.92;2.05;;;;;;;26.58;46.88;94627.06;5062103;28;20197;-84
2021/08/07 11:23:35;;;;;;;1.88;1.77;;;;;;;26.66;45.34;94617.63;5065390;28;20268;-86
2021/08/07 11:26:07;;;;;;;3.45;1.90;;;;;;;26.60;45.61;94613.56;5062874;28;20194;-85
2021/08/07 11:29:05;;;;;;;2.17;1.98;;;;;;;26.70;46.08;94605.41;5063530;28;20667;-86
2021/08/07 11:31:34;;;;;;;2.53;1.90;;;;;;;26.67;44.97;94601.50;5064121;28;20201;-84
2021/08/07 11:34:21;;;;;;;2.08;1.90;;;;;;;26.59;45.44;94604.06;5064991;28;20265;-84
2021/08/07 11:37:17;;;;;;;2.08;1.90;;;;;;;26.49;45.15;94597.97;5061970;28;20458;-85
2021/08/07 11:40:24;;;;;;;1.80;1.70;;;;;;;26.63;45.07;94587.34;5060892;28;20206;-85
2021/08/07 11:42:54;;;;;;;2.78;1.90;;;;;;;26.71;45.51;94596.41;5067011;28;20699;-84
2021/08/07 11:45:22;;;;;;;2.53;1.83;;;;;;;26.79;45.01;94607.00;5068021;28;20197;-85
2021/08/07 11:47:52;;;;;;;2.50;1.80;;;;;;;26.90;44.39;94591.69;5068662;28;20201;-85
2021/08/07 11:50:23;;;;;;;3.25;1.83;;;;;;;27.10;44.99;94596.47;5068155;28;20235;-84